createdAt,value
2024-01-01T00:00:24.421Z,98448.00
2024-01-01T00:00:55.956Z,98456.94
2024-01-01T00:01:27.600Z,98443.66
2024-01-01T00:01:59.173Z,98444.78
2024-01-01T00:02:30.634Z,98447.69
2024-01-01T00:03:02.095Z,98456.13
2024-01-01T00:03:33.692Z,98457.53
2024-01-01T00:04:05.220Z,98455.31
2024-01-01T00:04:36.746Z,98455.31
2024-01-01T00:05:08.238Z,98455.31
2024-01-01T00:05:39.752Z,98467.78
2024-01-01T00:06:11.306Z,98465.25
2024-01-01T00:06:42.863Z,98462.53
2024-01-01T00:07:14.398Z,98466.66
2024-01-01T00:07:45.902Z,98459.34
2024-01-01T00:08:17.399Z,98446.59
2024-01-01T00:08:48.932Z,98454.22
2024-01-01T00:09:20.438Z,98451.50
2024-01-01T00:09:51.876Z,98463.94
2024-01-01T00:10:23.320Z,98449.91
2024-01-01T00:10:54.845Z,98458.03
2024-01-01T00:11:26.326Z,98469.97
2024-01-01T00:11:57.811Z,98467.47
2024-01-01T00:12:29.314Z,98460.75
2024-01-01T00:13:00.755Z,98457.72
2024-01-01T00:13:32.288Z,98456.31
2024-01-01T00:14:03.758Z,98459.03
2024-01-01T00:14:35.272Z,98466.06
2024-01-01T00:15:06.709Z,98468.78
2024-01-01T00:15:38.352Z,98459.03
2024-01-01T00:16:09.887Z,98459.84
2024-01-01T00:16:41.517Z,98465.25
2024-01-01T00:17:13.053Z,98461.94
2024-01-01T00:17:44.681Z,98453.31
2024-01-01T00:18:16.244Z,98455.22
2024-01-01T00:18:47.822Z,98451.41
2024-01-01T00:19:19.429Z,98453.59
2024-01-01T00:19:51.040Z,98450.91
2024-01-01T00:20:22.599Z,98446.28
2024-01-01T00:20:54.169Z,98449.28
2024-01-01T00:21:25.914Z,98452.81
2024-01-01T00:21:57.543Z,98459.53
2024-01-01T00:22:29.080Z,98452.50
2024-01-01T00:23:00.651Z,98460.34
2024-01-01T00:23:32.209Z,98456.50
2024-01-01T00:24:03.815Z,98456.22
2024-01-01T00:24:35.390Z,98456.50
2024-01-01T00:25:09.466Z,98449.50
2024-01-01T00:25:41.267Z,98454.59
2024-01-01T00:26:12.875Z,98453.50
2024-01-01T00:26:44.528Z,98454.09
2024-01-01T00:27:16.008Z,98461.94
2024-01-01T00:27:47.508Z,98463.53
2024-01-01T00:28:18.992Z,98458.91
2024-01-01T00:28:50.525Z,98456.81
2024-01-01T00:29:27.755Z,98468.78
2024-01-01T00:30:02.671Z,98457.94
2024-01-01T00:30:34.233Z,98453.59
2024-01-01T00:31:05.678Z,98461.75
2024-01-01T00:31:37.155Z,98473.88
2024-01-01T00:32:08.689Z,98446.78
2024-01-01T00:32:40.309Z,98448.69
2024-01-01T00:33:12.014Z,98461.13
2024-01-01T00:33:43.584Z,98461.63
2024-01-01T00:34:15.174Z,98451.59
2024-01-01T00:34:46.684Z,98462.75
2024-01-01T00:35:18.231Z,98463.25
2024-01-01T00:35:49.795Z,98464.03
2024-01-01T00:36:21.362Z,98459.41
2024-01-01T00:36:52.810Z,98463.25
2024-01-01T00:37:24.267Z,98456.22
2024-01-01T00:37:55.731Z,98452.69
2024-01-01T00:38:27.195Z,98460.53
2024-01-01T00:38:58.818Z,98463.25
2024-01-01T00:39:30.272Z,98452.41
2024-01-01T00:40:33.227Z,98462.63
2024-01-01T00:41:04.806Z,98452.28
2024-01-01T00:41:36.290Z,98455.78
2024-01-01T00:42:07.742Z,98462.63
2024-01-01T00:42:39.229Z,98453.38
2024-01-01T00:43:10.742Z,98462.81
2024-01-01T00:43:42.380Z,98453.38
2024-01-01T00:44:13.914Z,98459.31
2024-01-01T00:44:45.377Z,98467.75
2024-01-01T00:45:16.891Z,98459.91
2024-01-01T00:45:50.058Z,98454.50
2024-01-01T00:46:21.964Z,98447.97
2024-01-01T00:46:53.502Z,98452.41
2024-01-01T00:47:25.150Z,98451.78
2024-01-01T00:47:56.713Z,98461.53
2024-01-01T00:48:28.347Z,98453.88
2024-01-01T00:49:00.138Z,98466.66
2024-01-01T00:49:31.720Z,98455.50
2024-01-01T00:50:03.229Z,98470.16
2024-01-01T00:50:34.744Z,98470.16
2024-01-01T00:51:06.197Z,98491.56
2024-01-01T00:51:37.609Z,98460.91
2024-01-01T00:52:09.034Z,98453.09
2024-01-01T00:52:40.690Z,98466.66
2024-01-01T00:53:12.345Z,98447.66
2024-01-01T00:53:43.927Z,98447.66
2024-01-01T00:54:15.441Z,98458.81
2024-01-01T00:54:46.913Z,98451.78
2024-01-01T00:55:19.966Z,98458.81
2024-01-01T00:55:52.746Z,98460.13
2024-01-01T00:56:24.235Z,98454.50
2024-01-01T00:56:55.719Z,98459.13
2024-01-01T00:57:27.247Z,98463.44
2024-01-01T00:57:58.788Z,98450.47
2024-01-01T00:58:30.321Z,98462.44
2024-01-01T00:59:01.911Z,98464.03
2024-01-01T00:59:33.420Z,98472.19
2024-01-01T01:00:04.914Z,98457.50
2024-01-01T01:00:36.409Z,98463.84
2024-01-01T01:01:07.954Z,98456.22
2024-01-01T01:01:39.501Z,98465.94
2024-01-01T01:02:11.094Z,98470.56
2024-01-01T01:02:42.703Z,98468.16
2024-01-01T01:03:14.180Z,98471.97
2024-01-01T01:03:45.691Z,98456.50
2024-01-01T01:04:17.244Z,98456.50
2024-01-01T01:04:59.326Z,98459.41
2024-01-01T01:05:37.335Z,98470.56
2024-01-01T01:06:14.759Z,98454.59
2024-01-01T01:06:52.539Z,98459.22
2024-01-01T01:07:24.085Z,98454.50
2024-01-01T01:07:55.577Z,98453.69
2024-01-01T01:08:27.049Z,98457.81
2024-01-01T01:08:58.547Z,98453.50
2024-01-01T01:09:30.056Z,98459.41
2024-01-01T01:10:01.644Z,98464.84
2024-01-01T01:10:33.192Z,98457.81
2024-01-01T01:11:04.831Z,98460.53
2024-01-01T01:11:36.452Z,98465.84
2024-01-01T01:12:07.972Z,98468.06
2024-01-01T01:12:39.422Z,98464.53
2024-01-01T01:13:10.880Z,98465.03
2024-01-01T01:13:42.394Z,98465.84
2024-01-01T01:14:13.946Z,98459.91
2024-01-01T01:14:45.879Z,98465.34
2024-01-01T01:15:17.426Z,98468.56
2024-01-01T01:15:48.905Z,98463.63
2024-01-01T01:16:20.603Z,98462.81
2024-01-01T01:16:52.093Z,98472.88
2024-01-01T01:17:23.676Z,98475.09
2024-01-01T01:17:55.341Z,98477.78
2024-01-01T01:18:26.974Z,98457.41
2024-01-01T01:18:58.856Z,98466.16
2024-01-01T01:19:30.496Z,98464.25
2024-01-01T01:20:02.444Z,98471.56
2024-01-01T01:20:34.385Z,98468.06
2024-01-01T01:21:05.949Z,98469.47
2024-01-01T01:21:37.428Z,98456.72
2024-01-01T01:22:08.904Z,98455.59
2024-01-01T01:22:40.392Z,98459.13
2024-01-01T01:23:11.942Z,98459.63
2024-01-01T01:23:43.557Z,98459.63
2024-01-01T01:24:15.131Z,98464.25
2024-01-01T01:24:46.668Z,98461.22
2024-01-01T01:25:18.364Z,98453.88
2024-01-01T01:25:49.979Z,98452.28
2024-01-01T01:26:21.553Z,98454.69
2024-01-01T01:26:53.311Z,98451.97
2024-01-01T01:27:24.822Z,98458.50
2024-01-01T01:27:56.335Z,98454.50
2024-01-01T01:28:27.800Z,98457.41
2024-01-01T01:28:59.368Z,98457.22
2024-01-01T01:29:30.975Z,98455.00
2024-01-01T01:30:02.503Z,98457.22
2024-01-01T01:30:34.056Z,98459.41
2024-01-01T01:31:05.633Z,98451.78
2024-01-01T01:31:37.209Z,98457.50
2024-01-01T01:32:08.754Z,98467.56
2024-01-01T01:32:40.398Z,98459.13
2024-01-01T01:33:12.021Z,98471.25
2024-01-01T01:33:43.636Z,98449.06
2024-01-01T01:34:15.111Z,98471.25
2024-01-01T01:34:46.851Z,98461.81
2024-01-01T01:35:18.393Z,98459.91
2024-01-01T01:35:49.914Z,98458.31
2024-01-01T01:36:21.391Z,98452.09
2024-01-01T01:36:52.881Z,98455.91
2024-01-01T01:37:24.306Z,98465.94
2024-01-01T01:37:55.767Z,98457.00
2024-01-01T01:38:27.239Z,98461.03
2024-01-01T01:38:58.765Z,98461.34
2024-01-01T01:39:30.267Z,98459.13
2024-01-01T01:40:01.785Z,98467.06
2024-01-01T01:40:33.290Z,98463.44
2024-01-01T01:41:04.839Z,98462.94
2024-01-01T01:41:36.304Z,98454.00
2024-01-01T01:42:07.766Z,98462.94
2024-01-01T01:42:39.323Z,98458.00
2024-01-01T01:43:10.767Z,98461.03
2024-01-01T01:43:42.218Z,98458.31
2024-01-01T01:44:13.812Z,98459.91
2024-01-01T01:44:45.341Z,98453.38
2024-01-01T01:45:16.867Z,98457.72
2024-01-01T01:45:48.335Z,98473.19
2024-01-01T01:46:19.766Z,98465.34
2024-01-01T01:46:52.735Z,98454.19
2024-01-01T01:47:24.918Z,98495.69
2024-01-01T01:47:56.623Z,98479.41
2024-01-01T01:48:28.229Z,98475.09
2024-01-01T01:48:59.854Z,98470.78
2024-01-01T01:49:31.435Z,98456.91
2024-01-01T01:50:02.970Z,98459.63
2024-01-01T01:50:34.487Z,98468.34
2024-01-01T01:51:05.937Z,98443.16
2024-01-01T01:51:37.425Z,98469.06
2024-01-01T01:52:08.904Z,98444.84
2024-01-01T01:52:40.376Z,98462.41
2024-01-01T01:53:11.923Z,98467.84
2024-01-01T01:53:43.415Z,98458.28
2024-01-01T01:54:14.908Z,98447.63
2024-01-01T01:54:46.446Z,98449.84
2024-01-01T01:55:17.868Z,98447.44
2024-01-01T01:55:49.376Z,98455.56
2024-01-01T01:56:20.831Z,98465.31
2024-01-01T01:56:52.291Z,98444.91
2024-01-01T01:57:23.747Z,98443.00
2024-01-01T01:57:55.294Z,98447.31
2024-01-01T01:58:26.814Z,98451.63
2024-01-01T01:58:58.299Z,98447.63
2024-01-01T01:59:29.735Z,98450.34
2024-01-01T02:00:01.247Z,98454.66
2024-01-01T02:00:32.711Z,98448.31
2024-01-01T02:01:04.209Z,98446.41
2024-01-01T02:01:35.754Z,98449.44
2024-01-01T02:02:07.325Z,98448.00
2024-01-01T02:02:38.945Z,98441.97
2024-01-01T02:03:10.429Z,98445.00
2024-01-01T02:03:41.929Z,98447.22
2024-01-01T02:04:13.457Z,98432.53
2024-01-01T02:04:44.952Z,98436.84
2024-01-01T02:05:16.519Z,98439.69
2024-01-01T02:05:48.188Z,98433.44
2024-01-01T02:06:19.800Z,98438.06
2024-01-01T02:06:51.289Z,98421.00
2024-01-01T02:07:22.723Z,98434.56
2024-01-01T02:07:54.281Z,98439.19
2024-01-01T02:08:25.940Z,98430.25
2024-01-01T02:08:57.423Z,98432.47
2024-01-01T02:09:28.847Z,98439.78
2024-01-01T02:10:00.412Z,98436.28
2024-01-01T02:10:32.247Z,98430.06
2024-01-01T02:11:03.883Z,98431.97
2024-01-01T02:11:35.574Z,98430.06
2024-01-01T02:12:07.247Z,98433.56
2024-01-01T02:12:38.792Z,98426.84
2024-01-01T02:13:10.245Z,98417.91
2024-01-01T02:13:41.776Z,98428.16
2024-01-01T02:14:13.417Z,98405.63
2024-01-01T02:14:45.061Z,98420.31
2024-01-01T02:15:16.692Z,98425.25
2024-01-01T02:15:48.136Z,98418.41
2024-01-01T02:16:19.677Z,98417.59
2024-01-01T02:16:51.202Z,98418.41
2024-01-01T02:17:22.837Z,98420.31
2024-01-01T02:17:54.396Z,98413.59
2024-01-01T02:18:26.024Z,98410.56
2024-01-01T02:18:57.656Z,98423.03
2024-01-01T02:19:29.466Z,98412.47
2024-01-01T02:20:01.964Z,98426.53
2024-01-01T02:20:39.204Z,98427.94
2024-01-01T02:21:10.688Z,98423.63
2024-01-01T02:21:42.209Z,98430.97
2024-01-01T02:22:13.726Z,98418.03
2024-01-01T02:22:45.248Z,98419.13
2024-01-01T02:23:16.897Z,98418.31
2024-01-01T02:23:48.553Z,98417.81
2024-01-01T02:24:20.074Z,98416.41
2024-01-01T02:24:51.550Z,98403.97
2024-01-01T02:25:23.046Z,98425.34
2024-01-01T02:25:54.747Z,98403.66
2024-01-01T02:26:26.448Z,98406.69
2024-01-01T02:26:57.890Z,98404.75
2024-01-01T02:27:29.374Z,98395.81
2024-01-01T02:28:00.813Z,98407.28
2024-01-01T02:28:32.329Z,98407.28
2024-01-01T02:29:03.895Z,98413.22
2024-01-01T02:29:35.476Z,98409.88
2024-01-01T02:30:06.949Z,98403.34
2024-01-01T02:30:38.678Z,98402.84
2024-01-01T02:31:10.129Z,98395.81
2024-01-01T02:31:41.820Z,98402.16
2024-01-01T02:32:13.465Z,98409.69
2024-01-01T02:32:45.123Z,98406.97
2024-01-01T02:33:16.712Z,98403.47
2024-01-01T02:33:48.277Z,98412.22
2024-01-01T02:34:19.702Z,98407.28
2024-01-01T02:34:51.193Z,98405.97
2024-01-01T02:35:22.733Z,98411.09
2024-01-01T02:35:54.213Z,98408.69
2024-01-01T02:36:25.641Z,98416.03
2024-01-01T02:36:57.124Z,98407.59
2024-01-01T02:37:28.611Z,98411.09
2024-01-01T02:38:00.179Z,98415.72
2024-01-01T02:38:31.657Z,98417.03
2024-01-01T02:39:03.179Z,98410.50
2024-01-01T02:39:34.625Z,98415.91
2024-01-01T02:40:06.146Z,98427.38
2024-01-01T02:40:37.643Z,98418.44
2024-01-01T02:41:09.272Z,98405.69
2024-01-01T02:41:40.763Z,98410.59
2024-01-01T02:42:12.226Z,98416.53
2024-01-01T02:42:43.710Z,98412.22
2024-01-01T02:43:15.205Z,98410.31
2024-01-01T02:43:46.705Z,98416.53
2024-01-01T02:44:18.254Z,98412.22
2024-01-01T02:44:49.745Z,98412.22
2024-01-01T02:45:21.209Z,98414.94
2024-01-01T02:45:52.728Z,98404.88
2024-01-01T02:46:24.200Z,98412.81
2024-01-01T02:46:55.807Z,98419.84
2024-01-01T02:47:27.365Z,98412.22
2024-01-01T02:47:58.910Z,98428.47
2024-01-01T02:48:30.496Z,98406.78
2024-01-01T02:49:02.082Z,98421.34
2024-01-01T02:49:33.697Z,98412.41
2024-01-01T02:50:05.187Z,98431.09
2024-01-01T02:50:36.708Z,98418.94
2024-01-01T02:51:08.178Z,98432.81
2024-01-01T02:51:39.658Z,98420.53
2024-01-01T02:52:11.088Z,98420.34
2024-01-01T02:52:42.676Z,98420.34
2024-01-01T02:53:14.332Z,98428.00
2024-01-01T02:53:45.822Z,98420.97
2024-01-01T02:54:17.366Z,98423.97
2024-01-01T02:54:48.844Z,98420.75
2024-01-01T02:55:20.329Z,98436.72
2024-01-01T02:55:51.860Z,98428.00
2024-01-01T02:56:23.429Z,98439.13
2024-01-01T02:56:54.989Z,98429.69
2024-01-01T02:57:26.509Z,98416.63
2024-01-01T02:57:58.036Z,98452.41
2024-01-01T02:58:29.534Z,98432.59
2024-01-01T02:59:01.175Z,98421.75
2024-01-01T02:59:32.630Z,98428.59
2024-01-01T03:00:04.197Z,98423.16
2024-01-01T03:00:35.822Z,98440.75
2024-01-01T03:01:07.492Z,98446.16
2024-01-01T03:01:39.055Z,98464.34
2024-01-01T03:02:10.734Z,98453.00
2024-01-01T03:02:42.475Z,98452.50
2024-01-01T03:03:14.007Z,98464.44
2024-01-01T03:03:45.642Z,98443.88
2024-01-01T03:04:17.143Z,98449.00
2024-01-01T03:04:48.898Z,98451.69
2024-01-01T03:05:20.856Z,98459.53
2024-01-01T03:05:52.403Z,98467.97
2024-01-01T03:06:23.968Z,98460.63
2024-01-01T03:06:55.470Z,98435.13
2024-01-01T03:07:26.993Z,98462.25
2024-01-01T03:07:58.619Z,98469.28
2024-01-01T03:08:30.206Z,98465.44
2024-01-01T03:09:01.683Z,98475.81
2024-01-01T03:09:33.101Z,98476.09
2024-01-01T03:10:04.638Z,98474.00
2024-01-01T03:10:36.105Z,98485.66
2024-01-01T03:11:07.710Z,98474.00
2024-01-01T03:11:39.168Z,98489.75
2024-01-01T03:12:10.698Z,98490.88
2024-01-01T03:12:42.205Z,98480.81
2024-01-01T03:13:13.751Z,98479.22
2024-01-01T03:13:45.241Z,98503.94
2024-01-01T03:14:16.762Z,98486.06
2024-01-01T03:14:48.270Z,98495.28
2024-01-01T03:15:19.766Z,98489.06
2024-01-01T03:15:51.198Z,98498.31
2024-01-01T03:16:22.668Z,98490.47
2024-01-01T03:16:54.205Z,98498.31
2024-01-01T03:17:25.812Z,98493.19
2024-01-01T03:17:57.464Z,98505.94
2024-01-01T03:18:29.201Z,98490.47
2024-01-01T03:19:04.527Z,98505.94
2024-01-01T03:19:36.493Z,98499.72
2024-01-01T03:20:08.057Z,98505.63
2024-01-01T03:20:39.551Z,98503.22
2024-01-01T03:21:11.121Z,98516.78
2024-01-01T03:21:42.598Z,98499.72
2024-01-01T03:22:14.103Z,98498.59
2024-01-01T03:22:45.667Z,98495.09
2024-01-01T03:23:17.217Z,98509.75
2024-01-01T03:23:48.686Z,98501.00
2024-01-01T03:24:20.149Z,98507.03
2024-01-01T03:24:51.719Z,98491.88
2024-01-01T03:25:23.223Z,98521.59
2024-01-01T03:25:54.685Z,98501.53
2024-01-01T03:26:26.176Z,98510.44
2024-01-01T03:26:57.738Z,98507.75
2024-01-01T03:27:29.188Z,98505.03
2024-01-01T03:28:00.637Z,98501.53
2024-01-01T03:28:32.198Z,98507.44
2024-01-01T03:29:03.789Z,98514.78
2024-01-01T03:29:35.228Z,98511.47
2024-01-01T03:30:06.760Z,98499.50
2024-01-01T03:30:38.345Z,98498.69
2024-01-01T03:31:09.912Z,98487.84
2024-01-01T03:31:41.501Z,98503.53
2024-01-01T03:32:13.232Z,98498.69
2024-01-01T03:32:44.902Z,98491.06
2024-01-01T03:33:16.449Z,98497.28
2024-01-01T03:33:47.999Z,98492.38
2024-01-01T03:34:19.403Z,98485.34
2024-01-01T03:34:50.967Z,98481.53
2024-01-01T03:35:22.496Z,98496.19
2024-01-01T03:35:54.111Z,98489.97
2024-01-01T03:36:25.637Z,98489.66
2024-01-01T03:36:57.145Z,98481.31
2024-01-01T03:37:28.605Z,98497.78
2024-01-01T03:38:00.158Z,98492.06
2024-01-01T03:38:31.704Z,98485.03
2024-01-01T03:39:03.139Z,98480.72
2024-01-01T03:39:34.629Z,98488.84
2024-01-01T03:40:06.119Z,98491.25
2024-01-01T03:40:37.809Z,98489.66
2024-01-01T03:41:09.484Z,98483.44
2024-01-01T03:41:41.030Z,98482.63
2024-01-01T03:42:12.679Z,98478.31
2024-01-01T03:42:44.143Z,98479.91
2024-01-01T03:43:15.589Z,98494.88
2024-01-01T03:43:47.035Z,98499.50
2024-01-01T03:44:18.652Z,98494.09
2024-01-01T03:44:50.135Z,98486.75
2024-01-01T03:45:21.655Z,98488.97
2024-01-01T03:45:53.184Z,98489.47
2024-01-01T03:46:24.710Z,98485.66
2024-01-01T03:46:56.245Z,98496.19
2024-01-01T03:47:27.902Z,98484.84
2024-01-01T03:47:59.532Z,98487.25
2024-01-01T03:48:31.090Z,98490.25
2024-01-01T03:49:02.643Z,98488.84
2024-01-01T03:49:34.246Z,98489.66
2024-01-01T03:50:05.813Z,98492.66
2024-01-01T03:50:37.353Z,98487.25
2024-01-01T03:51:08.832Z,98493.47
2024-01-01T03:51:40.321Z,98479.41
2024-01-01T03:52:11.749Z,98483.25
2024-01-01T03:52:43.230Z,98479.72
2024-01-01T03:53:14.926Z,98484.34
2024-01-01T03:53:46.468Z,98480.03
2024-01-01T03:54:17.960Z,98477.63
2024-01-01T03:54:49.417Z,98486.84
2024-01-01T03:55:20.873Z,98481.44
2024-01-01T03:55:52.365Z,98476.50
2024-01-01T03:56:23.834Z,98471.88
2024-01-01T03:56:55.315Z,98473.81
2024-01-01T03:57:26.747Z,98488.66
2024-01-01T03:57:58.253Z,98488.66
2024-01-01T03:58:29.708Z,98490.88
2024-01-01T03:59:01.293Z,98481.13
2024-01-01T03:59:32.845Z,98491.66
2024-01-01T04:00:06.418Z,98486.25
2024-01-01T04:00:39.634Z,98470.78
2024-01-01T04:01:11.107Z,98474.31
2024-01-01T04:01:42.698Z,98482.44
2024-01-01T04:02:14.415Z,98471.59
2024-01-01T04:02:46.004Z,98479.22
2024-01-01T04:03:17.554Z,98471.09
2024-01-01T04:03:49.151Z,98497.09
2024-01-01T04:04:20.691Z,98490.88
2024-01-01T04:04:52.234Z,98465.38
2024-01-01T04:05:23.858Z,98494.88
2024-01-01T04:05:57.216Z,98470.78
2024-01-01T04:06:30.175Z,98482.63
2024-01-01T04:07:01.644Z,98476.72
2024-01-01T04:07:33.082Z,98474.31
2024-01-01T04:08:04.922Z,98476.22
2024-01-01T04:08:36.624Z,98481.63
2024-01-01T04:09:08.173Z,98477.00
2024-01-01T04:09:39.609Z,98469.97
2024-01-01T04:10:11.244Z,98472.69
2024-01-01T04:10:42.768Z,98462.97
2024-01-01T04:11:14.277Z,98476.50
2024-01-01T04:11:45.890Z,98476.50
2024-01-01T04:12:17.365Z,98469.97
2024-01-01T04:12:48.841Z,98475.91
2024-01-01T04:13:20.397Z,98472.88
2024-01-01T04:13:52.066Z,98475.31
2024-01-01T04:14:23.640Z,98477.22
2024-01-01T04:14:55.105Z,98482.03
2024-01-01T04:15:26.608Z,98478.00
2024-01-01T04:15:58.067Z,98482.31
2024-01-01T04:16:29.556Z,98479.31
2024-01-01T04:17:01.153Z,98487.44
2024-01-01T04:17:32.701Z,98481.22
2024-01-01T04:18:04.486Z,98487.75
2024-01-01T04:18:36.299Z,98471.97
2024-01-01T04:19:07.878Z,98485.53
2024-01-01T04:19:39.401Z,98482.81
2024-01-01T04:20:10.929Z,98479.91
2024-01-01T04:20:42.415Z,98483.63
2024-01-01T04:21:13.874Z,98468.28
2024-01-01T04:21:45.349Z,98473.38
2024-01-01T04:22:16.907Z,98475.00
2024-01-01T04:22:48.481Z,98475.31
2024-01-01T04:23:20.046Z,98478.63
2024-01-01T04:23:51.558Z,98466.66
2024-01-01T04:24:23.028Z,98471.28
2024-01-01T04:24:54.465Z,98476.72
2024-01-01T04:25:25.967Z,98466.38
2024-01-01T04:25:57.428Z,98477.50
2024-01-01T04:26:28.859Z,98470.97
2024-01-01T04:27:00.406Z,98477.41
2024-01-01T04:27:31.881Z,98474.69
2024-01-01T04:28:03.753Z,98483.94
2024-01-01T04:28:35.581Z,98477.72
2024-01-01T04:29:07.174Z,98488.84
2024-01-01T04:29:38.644Z,98482.03
2024-01-01T04:30:10.185Z,98478.00
2024-01-01T04:30:41.847Z,98484.25
2024-01-01T04:31:13.356Z,98477.72
2024-01-01T04:31:44.857Z,98486.66
2024-01-01T04:32:16.492Z,98464.16
2024-01-01T04:32:48.341Z,98468.78
2024-01-01T04:33:19.931Z,98473.69
2024-01-01T04:33:51.555Z,98469.38
2024-01-01T04:34:23.076Z,98466.66
2024-01-01T04:34:54.540Z,98461.25
2024-01-01T04:35:25.993Z,98478.00
2024-01-01T04:35:57.511Z,98473.19
2024-01-01T04:36:29.072Z,98464.75
2024-01-01T04:37:00.553Z,98478.00
2024-01-01T04:37:32.017Z,98465.06
2024-01-01T04:38:03.831Z,98472.38
2024-01-01T04:38:35.487Z,98468.28
2024-01-01T04:39:06.995Z,98470.97
2024-01-01T04:39:38.428Z,98463.34
2024-01-01T04:40:09.935Z,98474.81
2024-01-01T04:40:41.492Z,98469.88
2024-01-01T04:41:13.140Z,98466.56
2024-01-01T04:41:44.809Z,98457.94
2024-01-01T04:42:16.342Z,98469.88
2024-01-01T04:42:47.787Z,98475.31
2024-01-01T04:43:19.241Z,98468.28
2024-01-01T04:43:50.702Z,98470.97
2024-01-01T04:44:22.234Z,98460.13
2024-01-01T04:44:53.764Z,98467.16
2024-01-01T04:45:25.236Z,98464.44
2024-01-01T04:45:56.756Z,98459.84
2024-01-01T04:46:28.286Z,98466.88
2024-01-01T04:46:59.849Z,98460.34
2024-01-01T04:47:31.388Z,98459.22
2024-01-01T04:48:03.066Z,98474.38
2024-01-01T04:48:34.756Z,98474.69
2024-01-01T04:49:06.398Z,98474.38
2024-01-01T04:49:37.928Z,98464.34
2024-01-01T04:50:09.499Z,98461.13
2024-01-01T04:50:41.149Z,98465.44
2024-01-01T04:51:12.597Z,98461.13
2024-01-01T04:51:44.056Z,98460.53
2024-01-01T04:52:15.534Z,98467.38
2024-01-01T04:52:47.031Z,98460.03
2024-01-01T04:53:18.658Z,98469.78
2024-01-01T04:53:50.189Z,98468.16
2024-01-01T04:54:21.604Z,98469.78
2024-01-01T04:54:53.103Z,98469.78
2024-01-01T04:55:24.612Z,98461.94
2024-01-01T04:55:56.124Z,98466.56
2024-01-01T04:56:27.632Z,98462.25
2024-01-01T04:56:59.079Z,98471.69
2024-01-01T04:57:30.573Z,98481.72
2024-01-01T04:58:02.145Z,98479.00
2024-01-01T04:58:33.760Z,98464.16
2024-01-01T04:59:05.241Z,98469.28
2024-01-01T04:59:36.729Z,98472.78
2024-01-01T05:00:08.191Z,98471.97
2024-01-01T05:00:39.817Z,98470.56
2024-01-01T05:01:11.411Z,98468.66
2024-01-01T05:01:42.896Z,98475.81
2024-01-01T05:02:14.443Z,98494.19
2024-01-01T05:02:45.922Z,98474.38
2024-01-01T05:03:17.405Z,98470.69
2024-01-01T05:03:48.958Z,98486.16
2024-01-01T05:04:20.589Z,98463.94
2024-01-01T05:04:52.154Z,98467.47
2024-01-01T05:05:23.611Z,98463.34
2024-01-01T05:05:55.080Z,98465.75
2024-01-01T05:06:26.796Z,98461.94
2024-01-01T05:06:58.273Z,98464.66
2024-01-01T05:07:29.705Z,98470.88
2024-01-01T05:08:01.280Z,98463.53
2024-01-01T05:08:32.766Z,98466.56
2024-01-01T05:09:04.291Z,98463.84
2024-01-01T05:09:35.781Z,98479.00
2024-01-01T05:10:07.312Z,98463.03
2024-01-01T05:10:38.789Z,98469.78
2024-01-01T05:11:10.303Z,98478.50
2024-01-01T05:11:41.804Z,98478.50
2024-01-01T05:12:13.274Z,98462.75
2024-01-01T05:12:44.723Z,98476.91
2024-01-01T05:13:16.246Z,98466.38
2024-01-01T05:13:47.755Z,98458.91
2024-01-01T05:14:19.269Z,98470.56
2024-01-01T05:14:50.801Z,98462.75
2024-01-01T05:15:22.320Z,98465.44
2024-01-01T05:15:53.772Z,98469.78
2024-01-01T05:16:25.235Z,98451.09
2024-01-01T05:16:56.695Z,98463.53
2024-01-01T05:17:28.259Z,98476.00
2024-01-01T05:17:59.885Z,98463.03
2024-01-01T05:18:31.565Z,98473.59
2024-01-01T05:19:03.112Z,98457.50
2024-01-01T05:19:34.598Z,98477.09
2024-01-01T05:20:06.182Z,98461.13
2024-01-01T05:20:37.673Z,98463.53
2024-01-01T05:21:09.113Z,98464.16
2024-01-01T05:21:40.589Z,98460.84
2024-01-01T05:22:12.121Z,98463.25
2024-01-01T05:22:43.643Z,98469.78
2024-01-01T05:23:15.219Z,98468.34
2024-01-01T05:23:46.780Z,98471.88
2024-01-01T05:24:18.213Z,98472.97
2024-01-01T05:24:49.628Z,98470.78
2024-01-01T05:25:21.082Z,98463.25
2024-01-01T05:25:52.620Z,98470.28
2024-01-01T05:26:24.108Z,98463.75
2024-01-01T05:26:55.577Z,98459.13
2024-01-01T05:27:27.125Z,98465.03
2024-01-01T05:27:58.623Z,98460.72
2024-01-01T05:28:30.151Z,98471.25
2024-01-01T05:29:01.650Z,98484.63
2024-01-01T05:29:33.224Z,98465.94
2024-01-01T05:30:04.737Z,98476.00
2024-01-01T05:30:36.335Z,98464.34
2024-01-01T05:31:07.823Z,98461.03
2024-01-01T05:31:39.296Z,98464.84
2024-01-01T05:32:11.090Z,98465.16
2024-01-01T05:32:42.777Z,98477.91
2024-01-01T05:33:14.359Z,98464.66
2024-01-01T05:33:45.948Z,98462.75
2024-01-01T05:34:17.480Z,98466.88
2024-01-01T05:34:49.024Z,98467.66
2024-01-01T05:35:20.651Z,98471.19
2024-01-01T05:35:52.232Z,98482.53
2024-01-01T05:36:23.783Z,98466.56
2024-01-01T05:36:55.268Z,98464.44
2024-01-01T05:37:26.771Z,98472.28
2024-01-01T05:37:58.291Z,98466.06
2024-01-01T05:38:29.770Z,98463.94
2024-01-01T05:39:01.261Z,98474.19
2024-01-01T05:39:32.695Z,98471.19
2024-01-01T05:40:04.204Z,98464.66
2024-01-01T05:40:35.687Z,98482.03
2024-01-01T05:41:08.435Z,98472.28
2024-01-01T05:41:39.941Z,98471.97
2024-01-01T05:42:11.469Z,98471.69
2024-01-01T05:42:42.953Z,98482.22
2024-01-01T05:43:14.426Z,98474.09
2024-01-01T05:43:45.896Z,98483.81
2024-01-01T05:44:17.444Z,98478.41
2024-01-01T05:44:48.907Z,98482.22
2024-01-01T05:45:20.421Z,98465.94
2024-01-01T05:45:51.881Z,98473.28
2024-01-01T05:46:23.579Z,98473.59
2024-01-01T05:46:55.164Z,98481.72
2024-01-01T05:47:26.645Z,98468.06
2024-01-01T05:47:58.244Z,98472.19
2024-01-01T05:48:36.478Z,98463.84
2024-01-01T05:49:11.659Z,98473.09
2024-01-01T05:49:43.288Z,98473.59
2024-01-01T05:50:14.862Z,98468.78
2024-01-01T05:50:46.466Z,98470.88
2024-01-01T05:51:18.008Z,98471.19
2024-01-01T05:51:49.518Z,98470.38
2024-01-01T05:52:20.964Z,98479.63
2024-01-01T05:52:52.449Z,98473.38
2024-01-01T05:53:23.947Z,98480.72
2024-01-01T05:53:55.492Z,98478.31
2024-01-01T05:54:27.081Z,98474.19
2024-01-01T05:54:58.553Z,98496.19
2024-01-01T05:55:30.094Z,98484.53
2024-01-01T05:56:01.640Z,98489.16
2024-01-01T05:56:33.110Z,98488.34
2024-01-01T05:57:04.563Z,98477.00
2024-01-01T05:57:36.051Z,98486.75
2024-01-01T05:58:07.563Z,98483.25
2024-01-01T05:58:39.134Z,98496.78
2024-01-01T05:59:10.739Z,98484.03
2024-01-01T05:59:42.234Z,98488.34
2024-01-01T06:00:13.745Z,98494.88
2024-01-01T06:00:45.362Z,98499.19
2024-01-01T06:01:16.856Z,98503.53
2024-01-01T06:01:48.355Z,98491.25
2024-01-01T06:02:19.815Z,98494.28
2024-01-01T06:02:51.323Z,98488.06
2024-01-01T06:03:22.852Z,98485.84
2024-01-01T06:03:54.367Z,98493.19
2024-01-01T06:04:25.848Z,98514.38
2024-01-01T06:04:57.462Z,98497.78
2024-01-01T06:05:29.103Z,98508.34
2024-01-01T06:06:00.745Z,98493.69
2024-01-01T06:06:32.318Z,98493.19
2024-01-01T06:07:03.769Z,98512.16
2024-01-01T06:07:35.331Z,98496.38
2024-01-01T06:08:07.047Z,98520.78
2024-01-01T06:08:38.779Z,98509.44
2024-01-01T06:09:10.354Z,98496.09
2024-01-01T06:09:43.771Z,98501.50
2024-01-01T06:10:15.235Z,98497.50
2024-01-01T06:10:46.798Z,98496.38
2024-01-01T06:11:18.361Z,98499.91
2024-01-01T06:11:51.364Z,98505.03
2024-01-01T06:12:23.182Z,98492.25